Time;durP1;ratioP1;P1;durP2;ratioP2;P2;SDS_P1;SDS_P2;PMS_P1;PMS_P2;Temp;Humidity;BMP_temperature;BMP_pressure;BME280_temperature;BME280_humidity;BME280_pressure;Samples;Min_cycle;Max_cycle;Signal;HPM_P1;HPM_P2
2022/09/21 00:00:48;;;;;;;5.97;2.92;;;9.20;99.90;;;;;;5050362;28;20044;-45
2022/09/21 00:03:14;;;;;;;4.47;2.30;;;9.20;99.90;;;;;;5050102;28;20080;-43
2022/09/21 00:05:41;;;;;;;4.53;2.15;;;9.20;99.90;;;;;;5049442;28;20388;-47
2022/09/21 00:08:07;;;;;;;4.88;2.28;;;9.10;99.90;;;;;;5050328;28;20561;-43
2022/09/21 00:10:34;;;;;;;5.32;2.25;;;9.00;99.90;;;;;;5050201;28;20045;-45
2022/09/21 00:13:03;;;;;;;3.65;2.00;;;8.90;99.90;;;;;;5050307;28;20603;-44
2022/09/21 00:15:31;;;;;;;3.92;2.22;;;8.90;99.90;;;;;;5048869;28;20145;-44
2022/09/21 00:17:58;;;;;;;4.88;2.40;;;8.80;99.90;;;;;;5053339;28;20108;-43
2022/09/21 00:20:25;;;;;;;6.82;2.65;;;8.70;99.90;;;;;;5053454;28;20098;-43
2022/09/21 00:22:51;;;;;;;6.53;2.20;;;8.70;99.90;;;;;;5053533;28;20037;-44
2022/09/21 00:25:18;;;;;;;4.97;2.40;;;8.80;99.90;;;;;;5053911;28;20041;-45
2022/09/21 00:27:47;;;;;;;6.45;2.20;;;8.70;99.90;;;;;;5053409;28;20041;-45
2022/09/21 00:30:14;;;;;;;7.80;2.17;;;8.70;99.90;;;;;;5053608;28;20049;-43
2022/09/21 00:32:40;;;;;;;4.18;2.08;;;8.70;99.90;;;;;;5052481;28;20040;-43
2022/09/21 00:35:06;;;;;;;4.82;2.17;;;8.70;99.90;;;;;;5053213;28;20067;-44
2022/09/21 00:37:33;;;;;;;5.50;2.40;;;8.60;99.90;;;;;;5053330;28;20033;-43
2022/09/21 00:39:59;;;;;;;4.97;2.15;;;8.60;99.90;;;;;;5052287;28;20095;-43
2022/09/21 00:42:30;;;;;;;3.85;2.10;;;8.50;99.90;;;;;;5052880;28;20049;-44
2022/09/21 00:44:57;;;;;;;5.93;1.95;;;8.70;99.90;;;;;;5053092;28;20672;-44
2022/09/21 00:47:26;;;;;;;4.28;2.30;;;8.60;99.90;;;;;;5052802;28;20029;-43
2022/09/21 00:49:54;;;;;;;4.75;2.17;;;8.50;99.90;;;;;;5035116;28;20041;-42
2022/09/21 00:52:24;;;;;;;4.85;2.20;;;8.60;99.90;;;;;;5051886;28;20040;-42
2022/09/21 00:54:51;;;;;;;4.65;2.10;;;8.70;99.90;;;;;;5053334;28;20037;-42
2022/09/21 00:57:20;;;;;;;3.65;1.92;;;8.60;99.90;;;;;;5052965;28;20392;-43
2022/09/21 00:59:49;;;;;;;3.88;2.10;;;8.60;99.90;;;;;;5053210;28;20434;-43
2022/09/21 01:02:16;;;;;;;4.68;2.00;;;8.60;99.90;;;;;;5053113;28;20048;-43
2022/09/21 01:04:43;;;;;;;3.67;1.90;;;8.60;99.90;;;;;;5053189;28;20424;-44
2022/09/21 01:07:13;;;;;;;4.03;2.22;;;8.50;99.90;;;;;;5052437;28;20541;-45
2022/09/21 01:09:42;;;;;;;3.55;1.90;;;8.40;99.90;;;;;;5052662;28;20075;-42
2022/09/21 01:12:37;;;;;;;3.03;1.80;;;8.50;99.90;;;;;;5051644;28;20044;-43
2022/09/21 01:15:17;;;;;;;;;;;8.50;99.90;;;;;;5013242;28;20515;-43
2022/09/21 01:18:01;;;;;;;3.97;1.70;;;8.40;99.90;;;;;;5052433;28;19996;-42
2022/09/21 01:20:43;;;;;;;4.13;1.77;;;8.40;99.90;;;;;;5052271;28;20061;-42
2022/09/21 01:23:23;;;;;;;4.22;1.75;;;8.40;99.90;;;;;;5036703;28;20048;-44
2022/09/21 01:26:05;;;;;;;3.22;1.58;;;8.30;99.90;;;;;;5052502;28;20388;-42
2022/09/21 01:29:18;;;;;;;3.10;1.52;;;8.30;99.90;;;;;;5051436;28;20044;-44
2022/09/21 01:32:04;;;;;;;3.42;1.48;;;8.20;99.90;;;;;;4970753;28;20092;-44
2022/09/21 01:34:42;;;;;;;4.25;1.50;;;8.30;99.90;;;;;;4970711;28;20117;-45
2022/09/21 01:37:16;;;;;;;3.85;1.58;;;8.20;99.90;;;;;;5026578;28;20053;-43
2022/09/21 01:39:46;;;;;;;5.13;1.70;;;8.20;99.90;;;;;;5052188;28;20028;-44
2022/09/21 01:42:13;;;;;;;3.13;1.30;;;8.10;99.90;;;;;;5051866;28;20064;-43
2022/09/21 01:44:40;;;;;;;4.57;1.42;;;8.20;99.90;;;;;;5052094;28;20044;-45
2022/09/21 01:47:11;;;;;;;5.15;1.55;;;8.10;99.90;;;;;;5052364;28;20047;-43
2022/09/21 01:49:52;;;;;;;3.13;1.38;;;8.00;99.90;;;;;;5052022;28;20029;-44
2022/09/21 01:52:36;;;;;;;5.18;1.40;;;8.10;99.90;;;;;;5051211;28;20115;-41
2022/09/21 01:55:27;;;;;;;;;;;8.00;99.90;;;;;;5052439;28;20045;-42
2022/09/21 01:58:01;;;;;;;4.47;1.42;;;8.00;99.90;;;;;;5046359;28;20350;-42
2022/09/21 02:00:29;;;;;;;3.58;1.45;;;7.90;99.90;;;;;;5051606;28;20047;-43
2022/09/21 02:03:03;;;;;;;2.80;1.27;;;8.00;99.90;;;;;;5051722;28;20102;-42
2022/09/21 02:05:29;;;;;;;3.17;1.10;;;7.90;99.90;;;;;;5052036;28;20120;-44
2022/09/21 02:07:57;;;;;;;3.25;1.00;;;8.10;99.90;;;;;;5051692;28;20048;-45
2022/09/21 02:10:30;;;;;;;4.65;1.73;;;7.90;99.90;;;;;;5048506;28;20045;-43
2022/09/21 02:13:00;;;;;;;4.10;1.00;;;7.90;99.90;;;;;;5051575;28;20045;-43
2022/09/21 02:15:49;;;;;;;2.40;1.00;;;8.10;99.90;;;;;;5051722;28;20045;-44
2022/09/21 02:18:41;;;;;;;2.15;0.90;;;8.00;99.90;;;;;;5051453;28;20128;-46
2022/09/21 02:21:19;;;;;;;2.35;1.10;;;8.00;99.90;;;;;;5051303;28;20041;-43
2022/09/21 02:24:00;;;;;;;3.08;0.90;;;7.70;99.90;;;;;;5050051;28;20556;-43
2022/09/21 02:26:34;;;;;;;4.78;1.00;;;7.80;99.90;;;;;;5051407;28;20037;-48
2022/09/21 02:29:19;;;;;;;4.20;1.48;;;7.70;99.90;;;;;;5051219;28;20480;-44
2022/09/21 02:31:58;;;;;;;4.35;1.20;;;7.80;99.90;;;;;;5051517;28;20052;-46
2022/09/21 02:34:48;;;;;;;3.72;0.90;;;7.80;99.90;;;;;;5051760;28;20384;-43
2022/09/21 02:37:46;;;;;;;2.38;0.80;;;7.50;99.90;;;;;;5051107;28;20037;-43
2022/09/21 02:40:21;;;;;;;1.67;0.88;;;7.50;99.90;;;;;;5048964;28;20036;-44
2022/09/21 02:42:53;;;;;;;2.70;1.00;;;7.50;99.90;;;;;;5050895;28;20037;-44
2022/09/21 02:45:26;;;;;;;1.85;0.77;;;7.40;99.90;;;;;;5050852;28;20032;-43
2022/09/21 02:48:07;;;;;;;7.50;2.45;;;7.60;99.90;;;;;;5049751;28;20175;-43
2022/09/21 02:50:52;;;;;;;1.92;0.93;;;7.20;99.90;;;;;;5031907;28;20420;-45
2022/09/21 02:53:27;;;;;;;3.28;1.20;;;7.30;99.90;;;;;;5050671;28;20040;-44
2022/09/21 02:55:55;;;;;;;2.63;0.90;;;7.30;99.90;;;;;;5051240;28;20495;-43
2022/09/21 02:58:23;;;;;;;2.08;0.85;;;7.40;99.90;;;;;;5050632;28;20036;-45
2022/09/21 03:00:49;;;;;;;2.15;1.20;;;7.30;99.90;;;;;;5050882;28;20112;-42
2022/09/21 03:03:20;;;;;;;2.50;1.00;;;7.30;99.90;;;;;;5050775;28;20032;-43
2022/09/21 03:05:48;;;;;;;2.30;1.00;;;7.40;99.90;;;;;;5050923;28;20078;-45
2022/09/21 03:08:14;;;;;;;4.22;1.17;;;7.30;99.90;;;;;;5050683;28;20090;-42
2022/09/21 03:10:40;;;;;;;3.28;1.10;;;7.50;99.90;;;;;;5050581;28;20052;-41
2022/09/21 03:13:09;;;;;;;2.63;0.98;;;7.40;99.90;;;;;;5050612;28;20041;-43
2022/09/21 03:15:36;;;;;;;1.75;1.17;;;7.20;99.90;;;;;;5050496;28;20055;-45
2022/09/21 03:18:03;;;;;;;2.00;0.98;;;6.90;99.90;;;;;;5050541;28;20072;-43
2022/09/21 03:20:31;;;;;;;1.42;0.85;;;7.00;99.90;;;;;;5050725;28;20041;-44
2022/09/21 03:22:57;;;;;;;2.40;1.00;;;7.20;99.90;;;;;;5050644;28;20036;-42
2022/09/21 03:25:23;;;;;;;1.98;0.90;;;7.10;99.90;;;;;;5050770;28;20126;-44
2022/09/21 03:27:52;;;;;;;2.95;1.00;;;7.10;99.90;;;;;;5050032;28;20475;-42
2022/09/21 03:30:20;;;;;;;2.13;1.10;;;7.00;99.90;;;;;;5050755;28;20045;-44
2022/09/21 03:32:51;;;;;;;3.10;1.20;;;6.80;99.90;;;;;;5050710;28;20422;-44
2022/09/21 03:35:21;;;;;;;3.25;1.05;;;6.80;99.90;;;;;;5050446;28;20040;-43
2022/09/21 03:37:48;;;;;;;2.17;1.17;;;6.90;99.90;;;;;;5050712;28;20040;-41
2022/09/21 03:40:15;;;;;;;2.25;1.08;;;6.80;99.90;;;;;;5047786;28;20087;-44
2022/09/21 03:42:41;;;;;;;3.92;1.30;;;6.80;99.90;;;;;;5050337;28;20124;-44
2022/09/21 03:45:09;;;;;;;2.20;1.17;;;7.00;99.90;;;;;;5050543;28;20040;-43
2022/09/21 03:47:36;;;;;;;2.10;0.98;;;6.90;99.90;;;;;;5050759;28;20470;-46
2022/09/21 03:50:02;;;;;;;3.15;1.20;;;6.80;99.90;;;;;;5051375;28;20086;-41
2022/09/21 03:52:27;;;;;;;4.78;1.05;;;6.80;99.90;;;;;;5054222;28;20391;-43
2022/09/21 03:54:54;;;;;;;3.38;1.23;;;6.80;99.90;;;;;;5054487;28;20033;-43
2022/09/21 03:57:20;;;;;;;2.80;1.35;;;6.70;99.90;;;;;;5054044;28;20079;-42
2022/09/21 03:59:46;;;;;;;2.33;1.02;;;6.80;99.90;;;;;;5054062;28;20127;-42
2022/09/21 04:02:11;;;;;;;2.42;1.20;;;6.70;99.90;;;;;;5052749;28;20488;-43
2022/09/21 04:04:37;;;;;;;1.63;0.77;;;6.70;99.90;;;;;;5054338;28;20098;-42
2022/09/21 04:07:03;;;;;;;2.72;1.00;;;6.70;99.90;;;;;;5039830;28;20068;-44
2022/09/21 04:09:29;;;;;;;2.30;1.00;;;6.60;99.90;;;;;;5035021;28;20045;-42
2022/09/21 04:11:55;;;;;;;4.78;1.10;;;6.60;99.90;;;;;;5054149;28;20088;-44
2022/09/21 04:14:22;;;;;;;3.45;1.20;;;6.40;99.90;;;;;;5053759;28;20032;-45
2022/09/21 04:16:49;;;;;;;2.47;1.08;;;6.40;99.90;;;;;;5054048;28;20069;-46
2022/09/21 04:19:15;;;;;;;3.30;1.20;;;6.50;99.90;;;;;;5053602;28;20142;-42
2022/09/21 04:21:41;;;;;;;3.97;1.20;;;6.40;99.90;;;;;;5053583;28;20099;-46
2022/09/21 04:24:06;;;;;;;3.42;1.25;;;6.70;99.90;;;;;;5043039;28;20044;-45
2022/09/21 04:26:34;;;;;;;6.82;1.42;;;6.60;99.90;;;;;;5048566;28;20045;-42
2022/09/21 04:29:00;;;;;;;2.72;1.20;;;6.50;99.90;;;;;;5053452;28;20111;-43
2022/09/21 04:31:28;;;;;;;4.05;1.10;;;6.70;99.90;;;;;;5053673;28;20128;-45
2022/09/21 04:33:56;;;;;;;4.70;1.00;;;6.60;99.90;;;;;;5053729;28;20037;-42
2022/09/21 04:36:23;;;;;;;2.97;1.17;;;6.50;99.90;;;;;;5052349;28;20041;-43
2022/09/21 04:38:49;;;;;;;3.95;1.42;;;6.70;99.90;;;;;;5053647;28;20045;-44
2022/09/21 04:41:16;;;;;;;4.43;1.17;;;6.50;99.90;;;;;;5053502;28;20572;-43
2022/09/21 04:43:43;;;;;;;4.70;1.35;;;6.50;99.90;;;;;;5052433;28;20425;-42
2022/09/21 04:46:11;;;;;;;3.67;1.20;;;6.50;99.90;;;;;;5053284;28;20041;-45
2022/09/21 04:48:38;;;;;;;3.38;1.02;;;6.50;99.90;;;;;;5051511;28;20037;-46
2022/09/21 04:51:08;;;;;;;3.80;1.00;;;6.50;99.90;;;;;;5052894;28;20037;-44
2022/09/21 04:53:35;;;;;;;2.35;0.98;;;6.50;99.90;;;;;;5052982;28;20037;-46
2022/09/21 04:56:03;;;;;;;4.65;1.10;;;6.40;99.90;;;;;;5053328;28;20048;-43
2022/09/21 04:58:29;;;;;;;4.45;1.25;;;6.40;99.90;;;;;;5052717;28;20043;-43
2022/09/21 05:00:55;;;;;;;7.90;1.23;;;6.60;99.90;;;;;;5052792;28;20052;-43
2022/09/21 05:03:23;;;;;;;7.68;1.23;;;6.60;99.90;;;;;;5028221;28;20168;-45
2022/09/21 05:05:54;;;;;;;7.22;1.30;;;6.50;99.90;;;;;;5053178;28;20590;-43
2022/09/21 05:11:06;;;;;;;4.30;1.20;;;6.30;99.90;;;;;;5052951;28;20056;-43
2022/09/21 05:13:31;;;;;;;8.65;1.05;;;6.40;99.90;;;;;;5053027;28;20045;-42
2022/09/21 05:16:00;;;;;;;2.80;1.35;;;6.20;99.90;;;;;;5053117;28;20064;-43
2022/09/21 05:18:25;;;;;;;3.03;1.20;;;6.00;99.90;;;;;;5052500;28;20061;-42
2022/09/21 05:20:55;;;;;;;2.17;0.85;;;6.30;99.90;;;;;;5052814;28;20048;-42
2022/09/21 05:23:22;;;;;;;2.65;0.93;;;6.20;99.90;;;;;;5051810;28;20047;-43
2022/09/21 05:25:48;;;;;;;4.13;1.10;;;6.30;99.90;;;;;;5048395;28;20045;-43
2022/09/21 05:28:18;;;;;;;19.90;2.22;;;6.50;99.90;;;;;;5051782;28;20494;-47
2022/09/21 05:30:47;;;;;;;14.75;2.20;;;6.30;99.90;;;;;;5038093;28;20048;-42
2022/09/21 05:33:18;;;;;;;45.03;3.38;;;6.50;99.90;;;;;;5052489;28;20182;-44
2022/09/21 05:36:08;;;;;;;44.55;3.53;;;6.30;99.90;;;;;;5045479;28;20440;-44
2022/09/21 05:38:34;;;;;;;15.55;2.00;;;6.40;99.90;;;;;;5052558;28;20041;-43
2022/09/21 05:41:00;;;;;;;28.77;3.58;;;6.50;99.90;;;;;;5052480;28;20047;-44
2022/09/21 05:43:26;;;;;;;11.60;2.55;;;6.40;99.90;;;;;;5051931;28;20078;-44
2022/09/21 05:46:01;;;;;;;24.35;2.65;;;6.40;99.90;;;;;;5052494;28;20426;-45
2022/09/21 05:48:39;;;;;;;12.52;2.35;;;6.40;99.90;;;;;;5052297;28;20045;-43
2022/09/21 05:51:13;;;;;;;29.27;2.90;;;6.50;99.90;;;;;;5051295;28;20091;-44
2022/09/21 05:53:42;;;;;;;17.73;2.80;;;6.60;99.90;;;;;;5052278;28;20037;-47
2022/09/21 05:56:29;;;;;;;27.38;3.22;;;6.50;99.90;;;;;;5052252;28;20037;-44
2022/09/21 05:59:28;;;;;;;13.40;2.78;;;6.60;99.90;;;;;;5051650;28;20041;-42
2022/09/21 06:02:18;;;;;;;5.60;2.00;;;6.50;99.90;;;;;;5051645;28;20037;-44
2022/09/21 06:04:43;;;;;;;4.90;2.00;;;6.50;99.90;;;;;;5049064;28;20063;-43
2022/09/21 06:07:09;;;;;;;6.60;2.13;;;6.70;99.90;;;;;;5050642;28;20116;-45
2022/09/21 06:09:35;;;;;;;6.95;1.83;;;6.70;99.90;;;;;;5048076;28;20499;-47
2022/09/21 06:12:01;;;;;;;5.45;1.85;;;6.60;99.90;;;;;;5044250;28;20078;-44
2022/09/21 06:14:26;;;;;;;3.78;1.80;;;6.80;99.90;;;;;;5043722;28;20048;-44
2022/09/21 06:16:52;;;;;;;5.60;1.85;;;6.70;99.90;;;;;;5033121;28;20045;-42
2022/09/21 06:19:18;;;;;;;5.05;1.92;;;6.60;99.90;;;;;;5046517;28;21651;-44
2022/09/21 06:21:43;;;;;;;3.80;2.10;;;6.80;99.90;;;;;;5043779;28;20110;-45
2022/09/21 06:24:10;;;;;;;8.88;2.50;;;6.80;99.90;;;;;;5045258;28;20033;-42
2022/09/21 06:26:36;;;;;;;7.35;3.00;;;6.60;99.90;;;;;;5045758;28;20120;-42
2022/09/21 06:29:02;;;;;;;5.63;2.80;;;6.70;99.90;;;;;;5048066;28;20111;-42
2022/09/21 06:31:29;;;;;;;6.97;3.05;;;6.70;99.90;;;;;;5041445;28;20044;-45
2022/09/21 06:33:54;;;;;;;7.03;2.97;;;6.90;99.90;;;;;;5044516;28;20040;-45
2022/09/21 06:36:20;;;;;;;8.48;3.22;;;7.00;99.90;;;;;;5036728;28;20044;-44
2022/09/21 06:38:46;;;;;;;7.35;3.35;;;6.80;99.90;;;;;;5045988;28;20495;-43
2022/09/21 06:41:11;;;;;;;9.68;3.17;;;6.80;99.90;;;;;;5044003;28;20552;-43
2022/09/21 06:43:37;;;;;;;5.60;3.20;;;6.90;99.90;;;;;;5043654;28;20068;-44
2022/09/21 06:46:03;;;;;;;8.98;3.30;;;7.00;99.90;;;;;;5042819;28;20380;-43
2022/09/21 06:48:31;;;;;;;10.55;4.45;;;7.20;99.90;;;;;;5026937;28;20044;-42
2022/09/21 06:51:02;;;;;;;8.75;4.13;;;7.20;99.90;;;;;;5040943;28;20056;-42
2022/09/21 06:53:29;;;;;;;8.10;4.55;;;7.30;99.90;;;;;;5041217;28;20055;-44
2022/09/21 06:56:06;;;;;;;8.45;4.03;;;7.20;99.90;;;;;;5041036;28;20036;-45
2022/09/21 06:58:36;;;;;;;7.50;3.67;;;7.40;99.90;;;;;;5039335;28;20559;-45
2022/09/21 07:01:12;;;;;;;6.43;3.20;;;7.50;99.90;;;;;;5040574;28;20136;-45
2022/09/21 07:03:39;;;;;;;6.78;3.30;;;7.60;99.90;;;;;;5039868;28;20048;-43
2022/09/21 07:06:06;;;;;;;5.60;3.58;;;7.40;99.90;;;;;;5042367;28;20029;-43
2022/09/21 07:08:32;;;;;;;8.05;4.05;;;7.70;99.90;;;;;;5042746;28;20044;-43
2022/09/21 07:10:59;;;;;;;6.90;4.18;;;7.80;99.90;;;;;;5040130;28;20041;-42
2022/09/21 07:13:26;;;;;;;13.43;4.93;;;7.80;99.90;;;;;;5025871;28;20123;-44
2022/09/21 07:15:52;;;;;;;10.52;5.40;;;7.70;99.90;;;;;;5040706;28;20033;-43
2022/09/21 07:18:17;;;;;;;9.73;5.13;;;7.70;99.90;;;;;;5041707;28;20064;-44
2022/09/21 07:20:43;;;;;;;7.97;4.60;;;7.80;99.90;;;;;;5041626;28;20043;-43
2022/09/21 07:23:10;;;;;;;12.00;5.07;;;7.70;99.90;;;;;;5041515;28;20472;-48
2022/09/21 07:25:36;;;;;;;8.27;5.22;;;8.10;99.90;;;;;;5044937;28;20045;-43
2022/09/21 07:28:02;;;;;;;8.20;5.15;;;7.90;99.90;;;;;;5032175;28;20544;-46
2022/09/21 07:30:28;;;;;;;10.90;6.50;;;8.00;99.90;;;;;;5045024;28;20087;-44
2022/09/21 07:32:53;;;;;;;8.60;5.90;;;8.40;99.90;;;;;;5048705;28;20048;-44
2022/09/21 07:35:19;;;;;;;10.27;6.95;;;8.30;99.90;;;;;;5048652;28;20560;-44
2022/09/21 07:37:45;;;;;;;10.25;6.45;;;8.60;99.90;;;;;;5041241;28;20040;-44
2022/09/21 07:40:10;;;;;;;13.10;7.28;;;8.60;99.90;;;;;;5045364;28;20118;-45
2022/09/21 07:42:36;;;;;;;13.32;7.50;;;8.90;99.90;;;;;;5046550;28;20044;-45
2022/09/21 07:45:02;;;;;;;11.13;7.78;;;8.90;99.90;;;;;;5048067;28;20044;-45
2022/09/21 07:47:27;;;;;;;11.82;7.80;;;9.00;99.90;;;;;;5052753;28;20037;-43
2022/09/21 07:49:54;;;;;;;12.25;7.35;;;8.90;99.90;;;;;;5051053;28;20037;-42
2022/09/21 07:52:20;;;;;;;18.30;7.43;;;9.00;99.90;;;;;;5050542;28;20044;-43
2022/09/21 07:54:45;;;;;;;10.85;6.45;;;9.30;99.90;;;;;;5051741;28;20480;-46
2022/09/21 07:59:57;;;;;;;12.77;6.88;;;9.60;99.90;;;;;;5048547;28;20126;-42
2022/09/21 08:02:23;;;;;;;12.75;7.72;;;9.50;99.90;;;;;;5054096;28;20037;-43
2022/09/21 08:04:49;;;;;;;11.30;7.88;;;9.50;99.90;;;;;;5055246;28;20467;-44
2022/09/21 08:07:14;;;;;;;13.25;7.82;;;9.70;99.90;;;;;;5056944;28;20035;-45
2022/09/21 08:09:40;;;;;;;13.70;7.13;;;9.90;99.90;;;;;;5054102;28;20175;-46
2022/09/21 08:12:07;;;;;;;11.65;7.03;;;10.10;99.90;;;;;;5057169;28;20040;-45
2022/09/21 08:14:34;;;;;;;10.85;6.03;;;10.00;99.90;;;;;;5056807;28;20060;-44
2022/09/21 08:17:01;;;;;;;13.10;6.50;;;10.40;99.90;;;;;;5057084;28;20138;-46
2022/09/21 08:19:27;;;;;;;12.55;6.60;;;10.30;99.90;;;;;;5056229;28;20045;-46
2022/09/21 08:21:53;;;;;;;14.20;7.38;;;10.60;99.90;;;;;;5055131;28;20472;-44
2022/09/21 08:24:19;;;;;;;14.05;6.35;;;10.70;99.90;;;;;;5056927;28;20044;-46
2022/09/21 08:26:45;;;;;;;13.30;6.82;;;10.90;99.90;;;;;;5054672;28;20492;-43
2022/09/21 08:29:13;;;;;;;13.32;5.53;;;10.90;99.90;;;;;;5056364;28;20060;-44
2022/09/21 08:31:39;;;;;;;12.75;5.35;;;11.00;99.90;;;;;;5054660;28;20048;-45
2022/09/21 08:34:04;;;;;;;10.13;5.03;;;11.10;99.90;;;;;;5056743;28;20053;-43
2022/09/21 08:36:31;;;;;;;12.35;5.43;;;11.20;99.90;;;;;;5054562;28;20391;-45
2022/09/21 08:38:56;;;;;;;11.90;5.00;;;11.30;99.90;;;;;;5053297;28;20037;-44
2022/09/21 08:41:27;;;;;;;9.40;4.65;;;11.40;99.90;;;;;;5053340;28;20043;-45
2022/09/21 08:43:59;;;;;;;8.10;4.25;;;11.50;99.90;;;;;;5053372;28;20047;-46
2022/09/21 08:46:27;;;;;;;10.55;4.63;;;11.50;99.90;;;;;;5053498;28;20029;-45
2022/09/21 08:48:55;;;;;;;9.15;4.78;;;11.90;99.90;;;;;;5053421;28;20044;-45
2022/09/21 08:51:25;;;;;;;10.40;4.50;;;11.80;99.90;;;;;;5043544;28;20041;-45
2022/09/21 08:54:01;;;;;;;9.70;4.93;;;12.10;99.90;;;;;;5052984;28;20041;-47
2022/09/21 08:56:27;;;;;;;10.57;4.45;;;12.10;99.90;;;;;;5053167;28;20090;-47
2022/09/21 08:58:52;;;;;;;12.77;4.00;;;12.40;99.90;;;;;;5052865;28;20112;-46
2022/09/21 09:01:24;;;;;;;10.73;3.97;;;12.60;99.90;;;;;;5052871;28;20033;-45
2022/09/21 09:04:15;;;;;;;10.98;3.80;;;12.50;99.90;;;;;;5038369;28;20379;-43
2022/09/21 09:06:50;;;;;;;8.80;3.47;;;12.70;99.90;;;;;;5053045;28;20043;-43
2022/09/21 09:09:18;;;;;;;6.63;3.42;;;13.10;99.90;;;;;;5053150;28;20090;-44
2022/09/21 09:11:56;;;;;;;12.15;3.90;;;13.20;99.90;;;;;;5052737;28;20041;-45
2022/09/21 09:14:31;;;;;;;10.00;3.60;;;13.40;99.90;;;;;;5052995;28;20033;-46
2022/09/21 09:17:02;;;;;;;;;;;13.50;99.90;;;;;;5053448;28;20124;-44
2022/09/21 09:20:01;;;;;;;9.55;3.35;;;13.60;99.90;;;;;;5035308;28;19920;-46
2022/09/21 09:22:42;;;;;;;8.52;3.83;;;13.60;99.90;;;;;;5051777;28;20084;-47
2022/09/21 09:25:23;;;;;;;11.13;3.65;;;13.80;99.90;;;;;;5052546;28;20029;-45
2022/09/21 09:27:58;;;;;;;8.90;2.58;;;14.10;99.90;;;;;;5052674;28;20456;-45
2022/09/21 09:30:25;;;;;;;7.82;3.13;;;14.10;99.90;;;;;;5053012;28;20545;-49
2022/09/21 09:33:20;;;;;;;13.00;2.53;;;14.30;99.90;;;;;;5052348;28;20033;-44
2022/09/21 09:35:51;;;;;;;8.88;2.38;;;14.30;99.90;;;;;;5052407;28;20041;-45
2022/09/21 09:38:35;;;;;;;7.97;2.38;;;14.40;99.90;;;;;;5052468;28;20037;-46
2022/09/21 09:41:16;;;;;;;6.47;1.70;;;14.50;99.90;;;;;;5052427;28;20047;-47
2022/09/21 09:44:00;;;;;;;6.70;2.10;;;14.70;99.90;;;;;;5047881;28;20422;-44
2022/09/21 09:46:43;;;;;;;8.48;1.88;;;14.60;99.90;;;;;;5052191;28;20075;-45
2022/09/21 09:49:22;;;;;;;6.45;1.63;;;14.70;99.90;;;;;;5051704;28;20037;-45
2022/09/21 09:51:47;;;;;;;7.05;1.80;;;14.70;99.90;;;;;;5051877;28;20087;-45
2022/09/21 09:54:16;;;;;;;6.47;2.00;;;14.80;99.90;;;;;;5052097;28;20064;-45
2022/09/21 09:56:42;;;;;;;5.47;1.80;;;14.80;99.90;;;;;;5050728;28;20111;-46
2022/09/21 09:59:36;;;;;;;7.07;2.03;;;14.70;99.90;;;;;;5051957;28;20037;-44
2022/09/21 10:02:17;;;;;;;6.55;1.60;;;14.80;99.90;;;;;;5049801;28;20080;-45
2022/09/21 10:05:05;;;;;;;7.97;2.08;;;14.80;99.90;;;;;;5052153;28;20091;-45
2022/09/21 10:07:42;;;;;;;5.88;1.83;;;14.80;99.90;;;;;;5051112;28;20032;-47
2022/09/21 10:10:22;;;;;;;10.52;2.03;;;14.90;99.90;;;;;;5051799;28;20033;-46
2022/09/21 10:12:51;;;;;;;9.38;2.00;;;14.90;99.90;;;;;;5051497;28;20088;-46
2022/09/21 10:15:18;;;;;;;6.03;1.50;;;15.10;99.90;;;;;;5051911;28;20108;-44
2022/09/21 10:17:47;;;;;;;7.65;1.73;;;15.10;99.90;;;;;;5050215;28;20051;-44
2022/09/21 10:20:17;;;;;;;6.88;1.73;;;15.30;99.90;;;;;;5051293;28;20124;-48
2022/09/21 10:22:52;;;;;;;6.70;1.60;;;15.40;99.90;;;;;;5051476;28;20084;-45
2022/09/21 10:25:19;;;;;;;7.72;2.08;;;15.50;99.90;;;;;;5051805;28;20044;-46
2022/09/21 10:27:49;;;;;;;7.05;1.80;;;15.50;99.90;;;;;;5051540;28;20045;-45
2022/09/21 10:30:30;;;;;;;4.22;1.38;;;15.50;99.90;;;;;;5051314;28;20388;-47
2022/09/21 10:32:57;;;;;;;8.20;1.58;;;15.50;99.90;;;;;;5050529;28;20045;-46
2022/09/21 10:35:24;;;;;;;4.60;1.20;;;15.20;99.90;;;;;;5051272;28;20039;-48
2022/09/21 10:38:15;;;;;;;4.93;1.50;;;15.00;99.90;;;;;;5049357;28;20076;-46
2022/09/21 10:40:43;;;;;;;7.30;1.65;;;14.70;99.90;;;;;;5050134;28;20076;-47
2022/09/21 10:43:22;;;;;;;8.55;1.60;;;14.60;99.90;;;;;;5051453;28;20060;-46
2022/09/21 10:45:56;;;;;;;7.72;1.70;;;14.50;99.90;;;;;;5051351;28;20036;-45
2022/09/21 10:48:24;;;;;;;7.43;1.83;;;14.40;99.90;;;;;;5050862;28;20033;-45
2022/09/21 10:50:51;;;;;;;5.82;1.38;;;14.60;99.90;;;;;;5050794;28;20147;-46
2022/09/21 10:53:29;;;;;;;6.93;1.42;;;15.10;99.90;;;;;;5051202;28;20068;-44
2022/09/21 10:56:01;;;;;;;9.07;1.58;;;15.60;99.90;;;;;;5050957;28;20041;-47
2022/09/21 10:58:27;;;;;;;5.65;1.05;;;15.70;99.90;;;;;;5050367;28;20596;-49
2022/09/21 11:00:54;;;;;;;5.68;1.00;;;16.00;99.90;;;;;;5050075;28;20041;-46
2022/09/21 11:03:34;;;;;;;6.53;1.20;;;16.30;99.90;;;;;;5051137;28;20496;-50
2022/09/21 11:06:15;;;;;;;5.03;1.02;;;16.30;99.90;;;;;;5050979;28;20480;-46
2022/09/21 11:09:07;;;;;;;6.57;1.40;;;16.60;99.90;;;;;;5050821;28;20033;-45
2022/09/21 11:11:52;;;;;;;6.93;1.13;;;16.70;99.90;;;;;;5041646;28;20053;-46
2022/09/21 11:14:52;;;;;;;6.90;1.20;;;16.90;99.90;;;;;;5050829;28;20407;-49
2022/09/21 11:17:55;;;;;;;5.53;1.02;;;17.00;99.90;;;;;;5050813;28;20094;-47
2022/09/21 11:20:26;;;;;;;5.70;0.90;;;17.20;99.90;;;;;;5037678;28;20051;-46
2022/09/21 11:23:09;;;;;;;5.18;0.93;;;17.20;99.90;;;;;;5050743;28;20044;-47
2022/09/21 11:25:44;;;;;;;3.97;0.85;;;17.50;99.90;;;;;;5050926;28;20043;-45
2022/09/21 11:28:18;;;;;;;5.07;0.70;;;17.60;99.90;;;;;;5050333;28;20029;-49
2022/09/21 11:31:11;;;;;;;4.38;0.68;;;17.60;99.90;;;;;;5050623;28;20033;-48
2022/09/21 11:34:04;;;;;;;4.25;0.88;;;17.70;99.90;;;;;;5031853;28;20040;-46
2022/09/21 11:36:48;;;;;;;7.40;1.20;;;17.80;99.90;;;;;;5050619;28;20483;-45
2022/09/21 11:39:36;;;;;;;;;;;18.20;99.90;;;;;;5051173;28;20090;-45
2022/09/21 11:42:26;;;;;;;4.57;0.93;;;18.30;99.50;;;;;;5050054;28;20296;-45
2022/09/21 11:44:55;;;;;;;4.25;0.80;;;18.50;99.60;;;;;;5050563;28;20068;-44
2022/09/21 11:47:52;;;;;;;3.53;0.68;;;18.60;99.90;;;;;;5050273;28;20044;-47
2022/09/21 11:50:29;;;;;;;6.20;1.23;;;18.80;97.90;;;;;;5050511;28;20040;-44
2022/09/21 11:53:10;;;;;;;3.08;0.70;;;19.00;98.00;;;;;;5031860;28;20114;-44
2022/09/21 11:56:04;;;;;;;4.05;0.85;;;19.20;99.20;;;;;;5050529;28;20146;-46
2022/09/21 11:58:42;;;;;;;4.55;0.95;;;19.00;97.40;;;;;;5050185;28;20036;-46
2022/09/21 12:01:41;;;;;;;4.30;0.82;;;18.80;96.20;;;;;;5050364;28;20119;-46
2022/09/21 12:04:34;;;;;;;4.60;0.80;;;18.80;95.80;;;;;;5016579;28;20049;-49
2022/09/21 12:07:32;;;;;;;4.85;0.98;;;19.00;96.40;;;;;;5050351;28;20040;-47
2022/09/21 12:10:16;;;;;;;4.28;0.90;;;18.90;97.30;;;;;;5047857;28;20615;-49
2022/09/21 12:12:44;;;;;;;;;;;19.50;97.60;;;;;;5052994;28;20384;-44
2022/09/21 12:15:17;;;;;;;3.58;0.80;;;19.50;96.10;;;;;;5052552;28;19923;-48
2022/09/21 12:18:01;;;;;;;5.78;0.95;;;19.90;97.70;;;;;;5051423;28;20562;-46
2022/09/21 12:20:39;;;;;;;4.90;1.10;;;20.00;95.90;;;;;;5053981;28;20095;-48
2022/09/21 12:23:22;;;;;;;2.80;0.80;;;20.30;95.10;;;;;;5053731;28;20110;-44
2022/09/21 12:25:53;;;;;;;4.57;0.73;;;20.10;95.00;;;;;;5053237;28;20036;-45
2022/09/21 12:28:29;;;;;;;3.85;0.80;;;20.50;94.60;;;;;;5053399;28;20041;-48
2022/09/21 12:31:02;;;;;;;5.05;0.77;;;19.80;95.40;;;;;;5053534;28;20048;-43
2022/09/21 12:33:35;;;;;;;;;;;19.20;95.70;;;;;;5054305;28;20110;-47
2022/09/21 12:36:17;;;;;;;3.55;0.80;;;19.10;96.30;;;;;;5053040;28;19917;-48
2022/09/21 12:39:06;;;;;;;3.70;0.70;;;18.80;95.80;;;;;;5051359;28;20076;-45
2022/09/21 12:41:52;;;;;;;4.18;0.93;;;18.30;96.00;;;;;;5051268;28;20101;-45
2022/09/21 12:44:50;;;;;;;2.65;0.60;;;18.10;96.50;;;;;;5052775;28;20064;-44
2022/09/21 12:47:28;;;;;;;7.55;1.10;;;17.90;97.00;;;;;;5053243;28;20083;-46
2022/09/21 12:50:01;;;;;;;2.53;0.70;;;17.70;97.50;;;;;;5053191;28;20036;-43
2022/09/21 12:52:27;;;;;;;7.07;0.95;;;17.70;98.20;;;;;;5053366;28;20055;-44
2022/09/21 12:55:00;;;;;;;4.93;0.80;;;17.50;98.30;;;;;;5053367;28;20045;-44
2022/09/21 12:57:47;;;;;;;5.15;0.80;;;17.40;98.80;;;;;;5051726;28;20067;-45
2022/09/21 13:00:18;;;;;;;4.60;0.90;;;17.30;98.60;;;;;;5050713;28;20527;-46
2022/09/21 13:03:03;;;;;;;4.47;0.70;;;17.30;97.50;;;;;;5049495;28;20044;-45
2022/09/21 13:05:53;;;;;;;5.30;0.82;;;17.30;97.60;;;;;;5050216;28;20044;-43
2022/09/21 13:08:32;;;;;;;6.82;0.80;;;17.30;98.70;;;;;;5045423;28;20468;-44
2022/09/21 13:11:04;;;;;;;3.10;0.55;;;17.20;97.30;;;;;;5046575;28;20037;-45
2022/09/21 13:13:32;;;;;;;6.25;1.05;;;17.20;98.30;;;;;;5049349;28;20060;-46
2022/09/21 13:16:00;;;;;;;3.22;0.68;;;17.00;97.10;;;;;;5052066;28;20060;-48
2022/09/21 13:18:25;;;;;;;3.90;0.90;;;16.90;98.50;;;;;;5052604;28;20473;-46
2022/09/21 13:20:53;;;;;;;4.53;0.80;;;16.80;98.70;;;;;;5051822;28;20045;-44
2022/09/21 13:23:32;;;;;;;4.40;0.93;;;16.70;99.60;;;;;;5051917;28;20074;-47
2022/09/21 13:26:01;;;;;;;5.15;1.05;;;16.90;99.60;;;;;;5051192;28;20025;-46